Flight Track Log - Related Links

Times and Time Zones

All times are in EDT time to prevent confusion due to time zone crossing. See the JBU917 flight status page for this flight to view local times or setup timezone preferences in your user account.

Time Position Orientation Groundspeed Altitude Reporting Facility
EDT Latitude Longitude Course Direction KTS MPH feet Rate Location/Type
Tue 08:42:46 PM 40.5833 -73.7833 304° West 210 242 2,300  Level New York TRACON
Tue 08:43:45 PM 40.6167 -73.7000 62° Northeast 244 281 4,700 2,924 Climbing New York TRACON
Tue 08:44:00 PM 40.7852 -74.0537 304° West  Level FlightAware Approximate
Tue 08:44:45 PM 40.6667 -73.6500 37° Northeast 271 312 8,100  Level New York TRACON
Tue 08:45:00 PM 40.8360 -74.1551 304° West  Level FlightAware Approximate
Tue 08:45:45 PM 40.7333 -73.5833 37° Northeast 286 329 10,800  Level New York TRACON
Tue 08:46:00 PM 40.8880 -74.2556 306° West  Level FlightAware Approximate
Tue 08:46:45 PM 40.8167 -73.5667 North 318 366 13,100  Level New York TRACON
Tue 08:47:00 PM 40.9418 -74.3544 306° West  Level FlightAware Approximate
Tue 08:47:45 PM 40.8667 -73.6500 308° West 318 366 16,000  Level New York TRACON
Tue 08:48:00 PM 40.9992 -74.4484 304° West  Level FlightAware Approximate
Tue 08:50:05 PM 40.9728 -73.8850 301° West 330 380 17,000  Level New York Center
Tue 08:51:05 PM 40.9969 -73.9878 287° West 320 368 17,500 1,289 Climbing New York Center
Tue 08:52:06 PM 41.0208 -74.1069 285° West 331 381 19,600 2,410 Climbing New York Center
Tue 08:53:07 PM 41.0444 -74.2239 285° West 336 387 22,400 2,479 Climbing New York Center
Tue 08:54:07 PM 41.0661 -74.3378 284° West 331 381 24,600 1,289 Climbing New York Center
Tue 08:55:08 PM 41.0892 -74.4628 284° West 331 381 25,000 610 Climbing New York Center
Tue 08:56:05 PM 41.1147 -74.5772 287° West 331 381 25,800 1,068 Climbing New York Center
Tue 08:57:06 PM 41.1439 -74.7056 287° West 345 397 27,100 1,475 Climbing New York Center
Tue 08:58:07 PM 41.1903 -74.8131 300° West 345 397 28,800 1,438 Climbing New York Center
Tue 08:59:07 PM 41.2328 -74.9119 300° West 340 391 30,000 610 Climbing New York Center
Tue 09:00:05 PM 41.2864 -75.0394 299° West 340 391 30,000  Level New York Center
Tue 09:01:05 PM 41.3306 -75.1447 299° West 335 386 30,000 639 Level New York Center
Tue 09:02:07 PM 41.3767 -75.2500 300° West 335 386 31,300 1,268 Climbing New York Center
Tue 09:03:08 PM 41.4225 -75.3581 300° West 335 386 32,600 1,220 Climbing New York Center
Tue 09:04:05 PM 41.4683 -75.4636 300° West 335 386 33,700 1,100 Climbing New York Center
Tue 09:05:08 PM 41.5033 -75.5797 292° West 335 386 34,800 900 Climbing New York Center
Tue 09:06:05 PM 41.5358 -75.6956 291° West 335 386 35,500 661 Climbing New York Center
Tue 09:07:06 PM 41.5725 -75.8175 292° West 342 394 36,100 836 Climbing New York Center
Tue 09:08:07 PM 41.6069 -75.9367 291° West 342 394 37,200 857 Climbing New York Center
Tue 09:09:05 PM 41.6392 -76.0558 290° West 342 394 37,800 403 Climbing New York Center
Tue 09:10:06 PM 41.6714 -76.1722 290° West 342 394 38,000 98 Climbing New York Center
Tue 09:11:07 PM 41.7072 -76.2972 291° West 342 394 38,000  Level New York Center
Tue 09:12:08 PM 41.7431 -76.4197 291° West 353 406 38,000  Level New York Center
Tue 09:13:05 PM 41.7711 -76.5306 289° West 358 412 38,000  Level New York Center
Tue 09:14:06 PM 41.8047 -76.6561 290° West 358 412 38,000  Level New York Center
Tue 09:15:07 PM 41.8419 -76.7819 292° West 358 412 38,000  Level New York Center
Tue 09:16:21 PM 41.8903 -76.9567 290° West 358 412 38,000  Level Cleveland Center
Tue 09:17:21 PM 41.9256 -77.0858 290° West 364 419 38,000  Level Cleveland Center
Tue 09:18:21 PM 41.9608 -77.2153 290° West 364 419 38,000  Level Cleveland Center
Tue 09:19:21 PM 41.9933 -77.3394 289° West 364 419 38,000  Level Cleveland Center
Tue 09:20:21 PM 42.0261 -77.4664 289° West 364 419 38,000  Level Cleveland Center
Tue 09:21:21 PM 42.0608 -77.5961 290° West 364 419 38,000  Level Cleveland Center
Tue 09:22:21 PM 42.0953 -77.7233 290° West 364 419 38,000  Level Cleveland Center
Tue 09:23:21 PM 42.1275 -77.8478 289° West 364 419 38,000  Level Cleveland Center
Tue 09:24:21 PM 42.1617 -77.9725 290° West 364 419 38,000  Level Cleveland Center
Tue 09:25:21 PM 42.1939 -78.1000 289° West 364 419 38,000  Level Cleveland Center
Tue 09:26:21 PM 42.2233 -78.2111 290° West 359 413 38,000  Level Cleveland Center
Tue 09:27:21 PM 42.2528 -78.3361 288° West 359 413 38,000  Level Cleveland Center
Tue 09:28:21 PM 42.2864 -78.4586 290° West 359 413 38,000  Level Cleveland Center
Tue 09:29:21 PM 42.3178 -78.5867 288° West 359 413 38,000  Level Cleveland Center
Tue 09:30:21 PM 42.3492 -78.7092 289° West 359 413 38,000  Level Cleveland Center
Tue 09:31:21 PM 42.3803 -78.8319 289° West 353 406 38,000  Level Cleveland Center
Tue 09:32:21 PM 42.4031 -78.9581 284° West 353 406 38,000  Level Cleveland Center
Tue 09:33:21 PM 42.4172 -79.0925 278° West 359 413 38,000  Level Cleveland Center
Tue 09:34:21 PM 42.4314 -79.2244 278° West 359 413 38,000  Level Cleveland Center
Tue 09:35:21 PM 42.4453 -79.3564 278° West 359 413 38,000  Level Cleveland Center
Tue 09:36:21 PM 42.4592 -79.4883 278° West 365 420 38,000  Level Cleveland Center
Tue 09:37:21 PM 42.4728 -79.6233 278° West 365 420 38,000  Level Cleveland Center
Tue 09:38:21 PM 42.4906 -79.7553 280° West 365 420 38,000  Level Cleveland Center
Tue 09:39:21 PM 42.5019 -79.8875 277° West 370 426 38,000  Level Cleveland Center
Tue 09:40:21 PM 42.5172 -80.0394 278° West 370 426 38,000  Level Cleveland Center
Tue 09:41:21 PM 42.5325 -80.1747 279° West 370 426 38,000  Level Cleveland Center
Tue 09:42:21 PM 42.5433 -80.3097 276° West 370 426 38,000  Level Cleveland Center
Tue 09:43:21 PM 42.5539 -80.4422 276° West 363 418 38,000  Level Cleveland Center
Tue 09:44:21 PM 42.5686 -80.5803 278° West 370 426 38,000  Level Cleveland Center
Tue 09:45:21 PM 42.5811 -80.7156 277° West 370 426 38,000  Level Cleveland Center
Tue 09:46:21 PM 42.5953 -80.8539 278° West 370 426 38,000  Level Cleveland Center
Tue 09:47:21 PM 42.6056 -80.9781 276° West 370 426 38,000  Level Cleveland Center
Tue 09:48:21 PM 42.6194 -81.1136 278° West 370 426 38,000  Level Cleveland Center
Tue 09:49:21 PM 42.6314 -81.2492 277° West 370 426 38,000  Level Cleveland Center
Tue 09:50:21 PM 42.6450 -81.3875 278° West 370 426 38,000  Level Cleveland Center
Tue 09:51:21 PM 42.6544 -81.5175 276° West 363 418 38,000  Level Cleveland Center
Tue 09:52:21 PM 42.6678 -81.6533 278° West 363 418 38,000  Level Cleveland Center
Tue 09:53:21 PM 42.6808 -81.8089 277° West 374 430 38,000  Level Cleveland Center
Tue 09:54:21 PM 42.6939 -81.9447 277° West 369 425 38,000  Level Cleveland Center
Tue 09:55:21 PM 42.7025 -82.0861 275° West 369 425 38,000  Level Cleveland Center
Tue 09:56:21 PM 42.7153 -82.2250 277° West 369 425 38,000  Level Cleveland Center
Tue 09:57:21 PM 42.7258 -82.3636 276° West 369 425 38,000  Level Cleveland Center
Tue 09:58:21 PM 42.7358 -82.5053 276° West 369 425 38,000  Level Cleveland Center
Tue 09:59:21 PM 42.7481 -82.6414 277° West 369 425 38,000  Level Cleveland Center
Tue 10:00:21 PM 42.7581 -82.7803 276° West 369 425 38,000  Level Cleveland Center
Tue 10:01:21 PM 42.7681 -82.9081 276° West 374 430 38,000  Level Cleveland Center
Tue 10:02:21 PM 42.7800 -83.0442 277° West 374 430 38,000  Level Cleveland Center
Tue 10:03:21 PM 42.7894 -83.1833 275° West 374 430 38,000  Level Cleveland Center
Tue 10:04:21 PM 42.8006 -83.3253 276° West 374 430 38,000  Level Cleveland Center
Tue 10:05:21 PM 42.8097 -83.4672 275° West 374 430 38,000  Level Cleveland Center
Tue 10:06:21 PM 42.8208 -83.6064 276° West 374 430 38,000  Level Cleveland Center
Tue 10:07:21 PM 42.8317 -83.7456 276° West 374 430 38,000  Level Cleveland Center
Tue 10:08:21 PM 42.8400 -83.8878 275° West 374 430 38,000  Level Cleveland Center
Tue 10:09:21 PM 42.8486 -84.0269 275° West 374 430 38,000  Level Cleveland Center
Tue 10:10:21 PM 42.8569 -84.1633 275° West 374 430 38,000 -850 Level Cleveland Center
Tue 10:11:21 PM 42.8650 -84.3056 274° West 369 425 36,300 -1,757 Descending Cleveland Center
Tue 10:12:41 PM 42.8772 -84.4758 276° West 365 420 33,900 -979 Descending Chicago Center
Tue 10:13:42 PM 42.8778 -84.6439 270° West 374 430 34,000 49 Climbing Chicago Center
Tue 10:14:43 PM 42.8628 -84.7869 262° West 382 440 34,000  Level Chicago Center
Tue 10:15:45 PM 42.8481 -84.9317 262° West 385 443 34,000  Level Chicago Center
Tue 10:16:46 PM 42.8319 -85.0800 262° West 394 453 34,000  Level Chicago Center
Tue 10:17:47 PM 42.8158 -85.2286 262° West 397 457 34,000  Level Chicago Center
Tue 10:18:48 PM 42.8003 -85.3756 262° West 393 452 34,000 -341 Level Chicago Center
Tue 10:19:50 PM 42.7822 -85.5219 261° West 392 451 33,300 -1,659 Descending Chicago Center
Tue 10:20:51 PM 42.7556 -85.6667 256° West 392 451 30,600 -2,557 Descending Chicago Center
Tue 10:21:52 PM 42.7486 -85.8125 266° West 386 444 28,100 -2,439 Descending Chicago Center
Tue 10:22:54 PM 42.7492 -85.9522 270° West 370 426 25,600 -2,244 Descending Chicago Center
Tue 10:23:55 PM 42.7472 -86.0878 269° West 361 415 23,500 -1,525 Descending Chicago Center
Tue 10:24:56 PM 42.7336 -86.2156 262° West 352 405 22,500 -1,122 Descending Chicago Center
Tue 10:25:58 PM 42.6894 -86.3611 248° West 347 399 21,200 -1,073 Descending Chicago Center
Tue 10:26:59 PM 42.6533 -86.4811 248° West 346 398 20,300 -1,377 Descending Chicago Center
Tue 10:28:00 PM 42.6158 -86.6047 248° West 352 405 18,400 -1,902 Descending Chicago Center
Tue 10:29:02 PM 42.5814 -86.7233 249° West 342 394 16,400 -1,902 Descending Chicago Center
Tue 10:30:03 PM 42.5464 -86.8408 248° West 337 388 14,500 -1,918 Descending Chicago Center
Tue 10:31:04 PM 42.5108 -86.9558 247° West 334 384 12,500 -1,918 Descending Chicago Center
Tue 10:32:05 PM 42.4756 -87.0653 246° West 324 373 10,600 -1,220 Descending Chicago Center
Tue 10:33:07 PM 42.4442 -87.1667 247° West 302 348 10,000 -780 Descending Chicago Center
Tue 10:34:08 PM 42.3833 -87.2275 216° Southwest 291 335 9,000 -885 Descending Chicago Center
Tue 10:35:09 PM 42.3025 -87.2875 209° Southwest 282 325 8,200 -976 Descending Chicago Center
Tue 10:36:11 PM 42.2350 -87.3381 209° Southwest 281 323 7,000 -1,073 Descending Chicago Center
Tue 10:37:12 PM 42.1742 -87.3878 211° Southwest 261 300 6,000 -492 Descending Chicago Center
Tue 10:38:13 PM 42.1156 -87.4392 213° Southwest 254 292 6,000  Level Chicago Center
Tue 10:38:41 PM 42.0833 -87.4667 212° Southwest 238 274 6,000 -540 Level Chicago TRACON
Tue 10:39:53 PM 42.0333 -87.5167 217° Southwest 200 230 5,100 -800 Descending Chicago TRACON
Tue 10:40:41 PM 42.0000 -87.5500 217° Southwest 196 226 4,400 -579 Descending Chicago TRACON
Tue 10:41:47 PM 41.9667 -87.6167 236° Southwest 193 222 4,000 -429 Descending Chicago TRACON
Tue 10:42:47 PM 41.9667 -87.6833 270° West 191 220 3,500 -737 Descending Chicago TRACON
Tue 10:43:41 PM 41.9667 -87.7500 270° West 176 203 2,600 -857 Descending Chicago TRACON
Tue 10:44:53 PM 41.9667 -87.8167 270° West 130 150 1,700 -714 Descending Chicago TRACON
Tue 10:45:47 PM 41.9667 -87.8500 270° West 137 158 1,100 -667 Descending Chicago TRACON

Login

Don't have an account? Register now (free) for customized features, flight alerts, and more!